sensor_id;sensor_type;location;lat;lon;timestamp;temperature;humidity
61386;DHT22;47256;18.904;-99.054;2023-02-21T00:01:39;28.40;42.60
61386;DHT22;47256;18.904;-99.054;2023-02-21T00:04:29;28.30;42.80
61386;DHT22;47256;18.904;-99.054;2023-02-21T00:07:17;28.30;43.30
61386;DHT22;47256;18.904;-99.054;2023-02-21T00:10:16;28.20;44.20
61386;DHT22;47256;18.904;-99.054;2023-02-21T00:13:19;28.10;45.30
61386;DHT22;47256;18.904;-99.054;2023-02-21T00:16:19;28.00;46.80
61386;DHT22;47256;18.904;-99.054;2023-02-21T00:19:05;27.90;46.60
61386;DHT22;47256;18.904;-99.054;2023-02-21T00:21:55;27.80;46.90
61386;DHT22;47256;18.904;-99.054;2023-02-21T00:25:06;27.70;48.30
61386;DHT22;47256;18.904;-99.054;2023-02-21T00:28:20;27.60;48.70
61386;DHT22;47256;18.904;-99.054;2023-02-21T00:31:08;27.50;49.60
61386;DHT22;47256;18.904;-99.054;2023-02-21T00:33:59;27.40;49.10
61386;DHT22;47256;18.904;-99.054;2023-02-21T00:36:53;27.30;49.70
61386;DHT22;47256;18.904;-99.054;2023-02-21T00:39:39;27.20;54.00
61386;DHT22;47256;18.904;-99.054;2023-02-21T00:42:30;27.10;52.50
61386;DHT22;47256;18.904;-99.054;2023-02-21T00:45:15;27.00;53.70
61386;DHT22;47256;18.904;-99.054;2023-02-21T00:48:03;26.80;53.90
61386;DHT22;47256;18.904;-99.054;2023-02-21T00:50:49;26.70;52.70
61386;DHT22;47256;18.904;-99.054;2023-02-21T00:53:35;26.60;53.50
61386;DHT22;47256;18.904;-99.054;2023-02-21T00:56:20;26.50;53.30
61386;DHT22;47256;18.904;-99.054;2023-02-21T00:59:06;26.40;52.90
61386;DHT22;47256;18.904;-99.054;2023-02-21T01:01:51;26.30;53.50
61386;DHT22;47256;18.904;-99.054;2023-02-21T01:04:37;26.30;54.30
61386;DHT22;47256;18.904;-99.054;2023-02-21T01:07:22;26.20;52.50
61386;DHT22;47256;18.904;-99.054;2023-02-21T01:10:09;26.20;53.90
61386;DHT22;47256;18.904;-99.054;2023-02-21T01:12:54;26.10;54.10
61386;DHT22;47256;18.904;-99.054;2023-02-21T01:15:40;26.10;54.20
61386;DHT22;47256;18.904;-99.054;2023-02-21T01:18:25;26.00;53.70
61386;DHT22;47256;18.904;-99.054;2023-02-21T01:21:14;25.90;54.10
61386;DHT22;47256;18.904;-99.054;2023-02-21T01:24:00;25.90;53.20
61386;DHT22;47256;18.904;-99.054;2023-02-21T01:26:46;25.80;53.30
61386;DHT22;47256;18.904;-99.054;2023-02-21T01:29:31;25.80;53.60
61386;DHT22;47256;18.904;-99.054;2023-02-21T01:32:18;25.70;54.60
61386;DHT22;47256;18.904;-99.054;2023-02-21T01:35:05;25.50;56.10
61386;DHT22;47256;18.904;-99.054;2023-02-21T01:37:51;25.40;54.20
61386;DHT22;47256;18.904;-99.054;2023-02-21T01:40:39;25.40;54.40
61386;DHT22;47256;18.904;-99.054;2023-02-21T01:43:28;25.30;53.70
61386;DHT22;47256;18.904;-99.054;2023-02-21T01:46:18;25.30;54.20
61386;DHT22;47256;18.904;-99.054;2023-02-21T01:49:15;25.20;54.70
61386;DHT22;47256;18.904;-99.054;2023-02-21T01:52:02;25.20;54.00
61386;DHT22;47256;18.904;-99.054;2023-02-21T01:54:53;25.20;55.30
61386;DHT22;47256;18.904;-99.054;2023-02-21T01:57:40;25.20;56.00
61386;DHT22;47256;18.904;-99.054;2023-02-21T02:00:26;25.10;55.80
61386;DHT22;47256;18.904;-99.054;2023-02-21T02:03:14;25.00;56.30
61386;DHT22;47256;18.904;-99.054;2023-02-21T02:06:08;24.90;54.20
61386;DHT22;47256;18.904;-99.054;2023-02-21T02:08:54;24.80;54.10
61386;DHT22;47256;18.904;-99.054;2023-02-21T02:43:14;24.40;57.80
61386;DHT22;47256;18.904;-99.054;2023-02-21T02:45:47;24.30;57.60
61386;DHT22;47256;18.904;-99.054;2023-02-21T02:48:25;24.30;57.00
61386;DHT22;47256;18.904;-99.054;2023-02-21T02:50:56;24.30;58.30
61386;DHT22;47256;18.904;-99.054;2023-02-21T02:53:27;24.10;58.80
61386;DHT22;47256;18.904;-99.054;2023-02-21T02:56:00;24.10;60.00
61386;DHT22;47256;18.904;-99.054;2023-02-21T02:58:41;23.90;60.10
61386;DHT22;47256;18.904;-99.054;2023-02-21T03:12:07;23.60;62.20
61386;DHT22;47256;18.904;-99.054;2023-02-21T03:17:35;23.50;60.10
61386;DHT22;47256;18.904;-99.054;2023-02-21T03:20:04;23.50;60.40
61386;DHT22;47256;18.904;-99.054;2023-02-21T03:22:33;23.50;60.20
61386;DHT22;47256;18.904;-99.054;2023-02-21T03:25:02;23.50;60.00
61386;DHT22;47256;18.904;-99.054;2023-02-21T03:27:31;23.50;61.60
61386;DHT22;47256;18.904;-99.054;2023-02-21T03:30:09;23.50;60.20
61386;DHT22;47256;18.904;-99.054;2023-02-21T03:32:50;23.40;59.80
61386;DHT22;47256;18.904;-99.054;2023-02-21T03:35:20;23.40;58.60
61386;DHT22;47256;18.904;-99.054;2023-02-21T03:37:51;23.40;59.70
61386;DHT22;47256;18.904;-99.054;2023-02-21T03:40:28;23.40;59.10
61386;DHT22;47256;18.904;-99.054;2023-02-21T03:43:01;23.50;59.20
61386;DHT22;47256;18.904;-99.054;2023-02-21T03:45:35;23.50;59.70
61386;DHT22;47256;18.904;-99.054;2023-02-21T03:48:11;23.50;59.80
61386;DHT22;47256;18.904;-99.054;2023-02-21T03:50:40;23.50;60.70
61386;DHT22;47256;18.904;-99.054;2023-02-21T03:53:09;23.30;60.90
61386;DHT22;47256;18.904;-99.054;2023-02-21T03:55:42;23.10;61.50
61386;DHT22;47256;18.904;-99.054;2023-02-21T03:58:16;22.80;62.00
61386;DHT22;47256;18.904;-99.054;2023-02-21T04:00:45;22.40;62.20
61386;DHT22;47256;18.904;-99.054;2023-02-21T04:03:13;22.10;62.30
61386;DHT22;47256;18.904;-99.054;2023-02-21T04:06:05;22.00;62.20
61386;DHT22;47256;18.904;-99.054;2023-02-21T04:08:33;22.20;61.50
61386;DHT22;47256;18.904;-99.054;2023-02-21T04:11:01;22.40;63.10
61386;DHT22;47256;18.904;-99.054;2023-02-21T04:13:32;22.50;62.20
61386;DHT22;47256;18.904;-99.054;2023-02-21T04:16:02;22.60;62.10
61386;DHT22;47256;18.904;-99.054;2023-02-21T04:18:30;22.70;62.00
61386;DHT22;47256;18.904;-99.054;2023-02-21T04:21:00;22.70;61.90
61386;DHT22;47256;18.904;-99.054;2023-02-21T04:23:31;22.50;60.50
61386;DHT22;47256;18.904;-99.054;2023-02-21T04:25:58;22.40;60.70
61386;DHT22;47256;18.904;-99.054;2023-02-21T04:28:42;22.40;60.70
61386;DHT22;47256;18.904;-99.054;2023-02-21T04:31:10;22.40;60.00
61386;DHT22;47256;18.904;-99.054;2023-02-21T04:33:37;22.40;59.40
61386;DHT22;47256;18.904;-99.054;2023-02-21T04:36:05;22.40;58.80
61386;DHT22;47256;18.904;-99.054;2023-02-21T04:38:40;22.30;58.80
61386;DHT22;47256;18.904;-99.054;2023-02-21T04:41:08;22.30;59.40
61386;DHT22;47256;18.904;-99.054;2023-02-21T04:43:36;22.40;60.10
61386;DHT22;47256;18.904;-99.054;2023-02-21T04:46:04;22.40;59.70
61386;DHT22;47256;18.904;-99.054;2023-02-21T04:48:32;22.30;60.30
61386;DHT22;47256;18.904;-99.054;2023-02-21T04:50:59;22.40;60.90
61386;DHT22;47256;18.904;-99.054;2023-02-21T04:53:26;22.30;60.70
61386;DHT22;47256;18.904;-99.054;2023-02-21T04:55:54;21.90;61.70
61386;DHT22;47256;18.904;-99.054;2023-02-21T04:58:21;21.80;61.30
61386;DHT22;47256;18.904;-99.054;2023-02-21T05:00:48;21.70;61.60
61386;DHT22;47256;18.904;-99.054;2023-02-21T05:03:16;21.80;62.60
61386;DHT22;47256;18.904;-99.054;2023-02-21T05:05:44;21.80;63.50
61386;DHT22;47256;18.904;-99.054;2023-02-21T05:08:11;21.60;64.20
61386;DHT22;47256;18.904;-99.054;2023-02-21T05:10:40;21.60;64.50
61386;DHT22;47256;18.904;-99.054;2023-02-21T05:13:07;21.70;62.90
61386;DHT22;47256;18.904;-99.054;2023-02-21T05:15:34;21.70;63.20
61386;DHT22;47256;18.904;-99.054;2023-02-21T05:18:01;21.80;63.60
61386;DHT22;47256;18.904;-99.054;2023-02-21T05:20:30;21.70;63.90
61386;DHT22;47256;18.904;-99.054;2023-02-21T05:22:57;21.60;63.90
61386;DHT22;47256;18.904;-99.054;2023-02-21T05:25:24;21.50;63.20
61386;DHT22;47256;18.904;-99.054;2023-02-21T05:27:52;21.50;62.40
61386;DHT22;47256;18.904;-99.054;2023-02-21T05:30:21;21.50;59.50
61386;DHT22;47256;18.904;-99.054;2023-02-21T05:32:52;21.50;59.50
61386;DHT22;47256;18.904;-99.054;2023-02-21T05:35:19;21.50;60.10
61386;DHT22;47256;18.904;-99.054;2023-02-21T05:37:47;21.50;60.30
61386;DHT22;47256;18.904;-99.054;2023-02-21T05:40:15;21.50;60.20
61386;DHT22;47256;18.904;-99.054;2023-02-21T05:42:43;21.50;60.20
61386;DHT22;47256;18.904;-99.054;2023-02-21T05:45:11;21.20;59.80
61386;DHT22;47256;18.904;-99.054;2023-02-21T05:47:38;21.10;60.60
61386;DHT22;47256;18.904;-99.054;2023-02-21T05:50:06;21.10;62.90
61386;DHT22;47256;18.904;-99.054;2023-02-21T05:52:33;21.10;61.40
61386;DHT22;47256;18.904;-99.054;2023-02-21T05:55:00;21.00;61.90
61386;DHT22;47256;18.904;-99.054;2023-02-21T05:57:28;21.00;61.60
61386;DHT22;47256;18.904;-99.054;2023-02-21T05:59:55;21.00;62.70
61386;DHT22;47256;18.904;-99.054;2023-02-21T06:02:22;21.00;61.60
61386;DHT22;47256;18.904;-99.054;2023-02-21T06:04:50;21.00;61.00
61386;DHT22;47256;18.904;-99.054;2023-02-21T06:07:18;21.00;61.50
61386;DHT22;47256;18.904;-99.054;2023-02-21T06:09:46;21.00;62.30
61386;DHT22;47256;18.904;-99.054;2023-02-21T06:12:14;21.00;63.20
61386;DHT22;47256;18.904;-99.054;2023-02-21T06:14:41;20.90;63.50
61386;DHT22;47256;18.904;-99.054;2023-02-21T06:17:09;20.70;65.10
61386;DHT22;47256;18.904;-99.054;2023-02-21T06:19:36;20.70;64.80
61386;DHT22;47256;18.904;-99.054;2023-02-21T06:22:04;20.80;64.40
61386;DHT22;47256;18.904;-99.054;2023-02-21T06:24:31;20.80;62.40
61386;DHT22;47256;18.904;-99.054;2023-02-21T06:26:58;20.80;62.00
61386;DHT22;47256;18.904;-99.054;2023-02-21T06:29:25;20.80;61.50
61386;DHT22;47256;18.904;-99.054;2023-02-21T06:31:58;20.90;60.70
61386;DHT22;47256;18.904;-99.054;2023-02-21T06:34:26;20.90;62.50
61386;DHT22;47256;18.904;-99.054;2023-02-21T06:36:56;20.90;62.20
61386;DHT22;47256;18.904;-99.054;2023-02-21T06:39:23;20.80;63.10
61386;DHT22;47256;18.904;-99.054;2023-02-21T06:41:51;20.80;63.50
61386;DHT22;47256;18.904;-99.054;2023-02-21T06:44:19;20.70;63.30
61386;DHT22;47256;18.904;-99.054;2023-02-21T06:46:48;20.70;64.00
61386;DHT22;47256;18.904;-99.054;2023-02-21T06:49:21;20.80;64.30
61386;DHT22;47256;18.904;-99.054;2023-02-21T06:51:48;20.90;64.30
61386;DHT22;47256;18.904;-99.054;2023-02-21T06:54:15;20.80;64.70
61386;DHT22;47256;18.904;-99.054;2023-02-21T06:56:43;20.70;66.40
61386;DHT22;47256;18.904;-99.054;2023-02-21T06:59:11;20.50;66.30
61386;DHT22;47256;18.904;-99.054;2023-02-21T07:01:38;20.40;67.40
61386;DHT22;47256;18.904;-99.054;2023-02-21T07:04:05;20.40;67.50
61386;DHT22;47256;18.904;-99.054;2023-02-21T07:06:33;20.40;67.50
61386;DHT22;47256;18.904;-99.054;2023-02-21T07:09:01;20.30;67.50
61386;DHT22;47256;18.904;-99.054;2023-02-21T07:11:31;20.30;67.50
61386;DHT22;47256;18.904;-99.054;2023-02-21T07:13:59;20.40;67.50
61386;DHT22;47256;18.904;-99.054;2023-02-21T07:16:27;20.40;67.60
61386;DHT22;47256;18.904;-99.054;2023-02-21T07:18:54;20.40;66.10
61386;DHT22;47256;18.904;-99.054;2023-02-21T07:21:21;20.40;67.70
61386;DHT22;47256;18.904;-99.054;2023-02-21T07:23:49;20.30;66.70
61386;DHT22;47256;18.904;-99.054;2023-02-21T07:26:16;20.20;67.50
61386;DHT22;47256;18.904;-99.054;2023-02-21T07:28:45;20.20;68.20
61386;DHT22;47256;18.904;-99.054;2023-02-21T07:31:13;20.30;67.80
61386;DHT22;47256;18.904;-99.054;2023-02-21T07:33:41;20.30;68.30
61386;DHT22;47256;18.904;-99.054;2023-02-21T07:36:08;20.40;67.80
61386;DHT22;47256;18.904;-99.054;2023-02-21T07:38:36;20.40;67.10
61386;DHT22;47256;18.904;-99.054;2023-02-21T07:41:04;20.40;66.00
61386;DHT22;47256;18.904;-99.054;2023-02-21T07:43:31;20.40;66.90
61386;DHT22;47256;18.904;-99.054;2023-02-21T07:45:59;20.30;66.60
61386;DHT22;47256;18.904;-99.054;2023-02-21T07:48:27;20.20;69.60
61386;DHT22;47256;18.904;-99.054;2023-02-21T07:50:54;20.20;68.60
61386;DHT22;47256;18.904;-99.054;2023-02-21T07:53:21;20.20;69.00
61386;DHT22;47256;18.904;-99.054;2023-02-21T07:55:49;20.20;68.60
61386;DHT22;47256;18.904;-99.054;2023-02-21T07:58:16;20.30;69.90
61386;DHT22;47256;18.904;-99.054;2023-02-21T08:00:43;20.20;69.70
61386;DHT22;47256;18.904;-99.054;2023-02-21T08:03:12;20.20;68.70
61386;DHT22;47256;18.904;-99.054;2023-02-21T08:05:40;20.10;69.40
61386;DHT22;47256;18.904;-99.054;2023-02-21T08:08:08;20.00;68.60
61386;DHT22;47256;18.904;-99.054;2023-02-21T08:10:36;19.90;67.70
61386;DHT22;47256;18.904;-99.054;2023-02-21T08:13:04;19.90;67.50
61386;DHT22;47256;18.904;-99.054;2023-02-21T08:15:31;19.90;68.30
61386;DHT22;47256;18.904;-99.054;2023-02-21T08:17:59;19.80;69.30
61386;DHT22;47256;18.904;-99.054;2023-02-21T08:20:26;19.90;69.30
61386;DHT22;47256;18.904;-99.054;2023-02-21T08:22:54;19.90;70.00
61386;DHT22;47256;18.904;-99.054;2023-02-21T08:25:21;19.80;70.30
61386;DHT22;47256;18.904;-99.054;2023-02-21T08:27:48;19.80;70.20
61386;DHT22;47256;18.904;-99.054;2023-02-21T08:30:19;19.70;69.60
61386;DHT22;47256;18.904;-99.054;2023-02-21T08:32:46;19.70;71.10
61386;DHT22;47256;18.904;-99.054;2023-02-21T08:35:16;19.70;70.90
61386;DHT22;47256;18.904;-99.054;2023-02-21T08:37:48;19.70;70.80
61386;DHT22;47256;18.904;-99.054;2023-02-21T08:40:19;19.50;70.50
61386;DHT22;47256;18.904;-99.054;2023-02-21T08:42:51;19.20;71.30
61386;DHT22;47256;18.904;-99.054;2023-02-21T08:45:38;19.20;71.50
61386;DHT22;47256;18.904;-99.054;2023-02-21T08:48:05;19.20;71.90
61386;DHT22;47256;18.904;-99.054;2023-02-21T08:50:32;19.30;72.20
61386;DHT22;47256;18.904;-99.054;2023-02-21T08:53:00;19.20;71.70
61386;DHT22;47256;18.904;-99.054;2023-02-21T08:55:28;19.10;71.90
61386;DHT22;47256;18.904;-99.054;2023-02-21T08:57:55;19.10;72.10
61386;DHT22;47256;18.904;-99.054;2023-02-21T09:00:23;19.00;72.00
61386;DHT22;47256;18.904;-99.054;2023-02-21T09:02:55;19.10;72.60
61386;DHT22;47256;18.904;-99.054;2023-02-21T09:05:26;19.00;71.60
61386;DHT22;47256;18.904;-99.054;2023-02-21T09:07:55;19.10;72.00
61386;DHT22;47256;18.904;-99.054;2023-02-21T09:10:31;18.90;70.70
61386;DHT22;47256;18.904;-99.054;2023-02-21T09:13:00;18.90;70.90
61386;DHT22;47256;18.904;-99.054;2023-02-21T09:15:28;18.90;70.10
61386;DHT22;47256;18.904;-99.054;2023-02-21T09:17:55;18.90;69.90
61386;DHT22;47256;18.904;-99.054;2023-02-21T09:20:25;19.00;70.20
61386;DHT22;47256;18.904;-99.054;2023-02-21T09:22:52;19.00;70.00
61386;DHT22;47256;18.904;-99.054;2023-02-21T09:25:22;19.10;70.20
61386;DHT22;47256;18.904;-99.054;2023-02-21T09:27:51;19.10;70.40
61386;DHT22;47256;18.904;-99.054;2023-02-21T09:30:21;19.10;70.10
61386;DHT22;47256;18.904;-99.054;2023-02-21T09:32:50;19.00;70.10
61386;DHT22;47256;18.904;-99.054;2023-02-21T09:35:18;19.00;69.10
61386;DHT22;47256;18.904;-99.054;2023-02-21T09:37:45;19.00;70.10
61386;DHT22;47256;18.904;-99.054;2023-02-21T09:42:59;19.00;70.50
61386;DHT22;47256;18.904;-99.054;2023-02-21T09:45:31;19.00;69.50
61386;DHT22;47256;18.904;-99.054;2023-02-21T09:48:02;18.90;70.90
61386;DHT22;47256;18.904;-99.054;2023-02-21T09:50:38;18.90;70.50
61386;DHT22;47256;18.904;-99.054;2023-02-21T09:53:07;18.90;69.90
61386;DHT22;47256;18.904;-99.054;2023-02-21T09:55:39;18.80;69.60
61386;DHT22;47256;18.904;-99.054;2023-02-21T09:58:14;18.90;69.80
61386;DHT22;47256;18.904;-99.054;2023-02-21T10:00:44;18.90;68.90
61386;DHT22;47256;18.904;-99.054;2023-02-21T10:03:23;18.80;67.50
61386;DHT22;47256;18.904;-99.054;2023-02-21T10:17:01;18.50;69.60
61386;DHT22;47256;18.904;-99.054;2023-02-21T10:19:35;18.40;70.40
61386;DHT22;47256;18.904;-99.054;2023-02-21T10:22:19;18.30;70.40
61386;DHT22;47256;18.904;-99.054;2023-02-21T10:24:48;18.30;69.90
61386;DHT22;47256;18.904;-99.054;2023-02-21T10:27:25;18.30;70.10
61386;DHT22;47256;18.904;-99.054;2023-02-21T10:30:03;18.10;71.40
61386;DHT22;47256;18.904;-99.054;2023-02-21T10:32:32;18.10;71.10
61386;DHT22;47256;18.904;-99.054;2023-02-21T10:35:00;18.20;72.90
61386;DHT22;47256;18.904;-99.054;2023-02-21T10:43:15;18.20;72.20
61386;DHT22;47256;18.904;-99.054;2023-02-21T10:48:38;18.00;72.30
61386;DHT22;47256;18.904;-99.054;2023-02-21T10:53:42;17.90;74.00
61386;DHT22;47256;18.904;-99.054;2023-02-21T10:59:00;18.10;73.90
61386;DHT22;47256;18.904;-99.054;2023-02-21T11:01:44;18.00;73.70
61386;DHT22;47256;18.904;-99.054;2023-02-21T11:14:33;18.00;74.90
61386;DHT22;47256;18.904;-99.054;2023-02-21T11:17:18;17.90;74.80
61386;DHT22;47256;18.904;-99.054;2023-02-21T11:19:51;17.90;74.80
61386;DHT22;47256;18.904;-99.054;2023-02-21T11:22:25;17.80;75.40
61386;DHT22;47256;18.904;-99.054;2023-02-21T11:25:27;17.70;75.00
61386;DHT22;47256;18.904;-99.054;2023-02-21T11:30:32;17.80;76.00
61386;DHT22;47256;18.904;-99.054;2023-02-21T11:33:02;17.80;76.30
61386;DHT22;47256;18.904;-99.054;2023-02-21T11:35:38;17.80;75.60
61386;DHT22;47256;18.904;-99.054;2023-02-21T11:38:10;17.90;75.00
61386;DHT22;47256;18.904;-99.054;2023-02-21T11:40:54;17.80;75.60
61386;DHT22;47256;18.904;-99.054;2023-02-21T11:43:30;17.90;75.10
61386;DHT22;47256;18.904;-99.054;2023-02-21T11:46:12;17.90;75.20
61386;DHT22;47256;18.904;-99.054;2023-02-21T11:48:50;17.80;76.10
61386;DHT22;47256;18.904;-99.054;2023-02-21T11:54:07;17.70;75.60
61386;DHT22;47256;18.904;-99.054;2023-02-21T11:57:04;17.70;76.30
61386;DHT22;47256;18.904;-99.054;2023-02-21T12:00:05;17.70;76.40
61386;DHT22;47256;18.904;-99.054;2023-02-21T12:11:15;17.20;75.50
61386;DHT22;47256;18.904;-99.054;2023-02-21T12:17:05;17.30;74.70
61386;DHT22;47256;18.904;-99.054;2023-02-21T12:22:38;17.40;74.60
61386;DHT22;47256;18.904;-99.054;2023-02-21T12:25:42;17.40;74.40
61386;DHT22;47256;18.904;-99.054;2023-02-21T12:31:41;17.40;74.90
61386;DHT22;47256;18.904;-99.054;2023-02-21T12:34:30;17.20;75.00
61386;DHT22;47256;18.904;-99.054;2023-02-21T12:48:17;17.20;75.90
61386;DHT22;47256;18.904;-99.054;2023-02-21T12:50:50;17.10;76.40
61386;DHT22;47256;18.904;-99.054;2023-02-21T12:53:24;17.10;76.40
61386;DHT22;47256;18.904;-99.054;2023-02-21T12:56:05;17.20;77.20
61386;DHT22;47256;18.904;-99.054;2023-02-21T12:58:36;17.20;75.90
61386;DHT22;47256;18.904;-99.054;2023-02-21T13:06:41;17.10;78.20
61386;DHT22;47256;18.904;-99.054;2023-02-21T13:12:10;17.00;78.20
61386;DHT22;47256;18.904;-99.054;2023-02-21T13:15:33;17.10;78.50
61386;DHT22;47256;18.904;-99.054;2023-02-21T13:17:36;17.20;79.10
61386;DHT22;47256;18.904;-99.054;2023-02-21T13:20:09;17.10;78.60
61386;DHT22;47256;18.904;-99.054;2023-02-21T13:23:02;17.10;77.90
61386;DHT22;47256;18.904;-99.054;2023-02-21T13:28:31;17.20;79.30
61386;DHT22;47256;18.904;-99.054;2023-02-21T13:31:04;17.30;80.40
61386;DHT22;47256;18.904;-99.054;2023-02-21T13:33:41;17.30;79.50
61386;DHT22;47256;18.904;-99.054;2023-02-21T13:41:55;17.50;80.00
61386;DHT22;47256;18.904;-99.054;2023-02-21T13:44:49;17.60;79.80
61386;DHT22;47256;18.904;-99.054;2023-02-21T13:47:19;17.70;79.90
61386;DHT22;47256;18.904;-99.054;2023-02-21T13:49:57;17.80;79.40
61386;DHT22;47256;18.904;-99.054;2023-02-21T13:52:33;17.90;79.70
61386;DHT22;47256;18.904;-99.054;2023-02-21T14:03:03;18.10;80.20
61386;DHT22;47256;18.904;-99.054;2023-02-21T14:08:42;18.30;80.90
61386;DHT22;47256;18.904;-99.054;2023-02-21T14:11:20;18.50;80.80
61386;DHT22;47256;18.904;-99.054;2023-02-21T14:14:04;18.50;80.10
61386;DHT22;47256;18.904;-99.054;2023-02-21T14:17:30;18.60;80.50
61386;DHT22;47256;18.904;-99.054;2023-02-21T14:19:51;18.80;79.80
61386;DHT22;47256;18.904;-99.054;2023-02-21T14:22:30;19.00;79.50
61386;DHT22;47256;18.904;-99.054;2023-02-21T14:25:17;19.10;78.80
61386;DHT22;47256;18.904;-99.054;2023-02-21T14:27:45;19.30;79.40
61386;DHT22;47256;18.904;-99.054;2023-02-21T14:30:26;19.40;77.40
61386;DHT22;47256;18.904;-99.054;2023-02-21T14:33:05;19.60;76.40
61386;DHT22;47256;18.904;-99.054;2023-02-21T14:35:42;19.70;74.70
61386;DHT22;47256;18.904;-99.054;2023-02-21T14:38:26;19.90;75.00
61386;DHT22;47256;18.904;-99.054;2023-02-21T14:41:04;20.00;76.70
61386;DHT22;47256;18.904;-99.054;2023-02-21T14:46:52;20.20;75.50
61386;DHT22;47256;18.904;-99.054;2023-02-21T14:52:17;20.60;74.20
61386;DHT22;47256;18.904;-99.054;2023-02-21T14:55:00;20.70;71.30
61386;DHT22;47256;18.904;-99.054;2023-02-21T15:05:44;21.40;72.30
61386;DHT22;47256;18.904;-99.054;2023-02-21T15:08:23;21.60;69.80
61386;DHT22;47256;18.904;-99.054;2023-02-21T15:11:00;21.80;68.90
61386;DHT22;47256;18.904;-99.054;2023-02-21T15:13:34;22.00;69.10
61386;DHT22;47256;18.904;-99.054;2023-02-21T15:16:02;22.10;69.40
61386;DHT22;47256;18.904;-99.054;2023-02-21T15:18:37;22.20;68.80
61386;DHT22;47256;18.904;-99.054;2023-02-21T15:21:18;22.40;70.30
61386;DHT22;47256;18.904;-99.054;2023-02-21T15:23:48;22.60;70.20
61386;DHT22;47256;18.904;-99.054;2023-02-21T15:26:28;22.70;69.60
61386;DHT22;47256;18.904;-99.054;2023-02-21T15:31:50;23.00;67.10
61386;DHT22;47256;18.904;-99.054;2023-02-21T15:34:26;23.10;66.30
61386;DHT22;47256;18.904;-99.054;2023-02-21T15:39:51;23.40;64.10
61386;DHT22;47256;18.904;-99.054;2023-02-21T15:42:20;23.50;63.50
61386;DHT22;47256;18.904;-99.054;2023-02-21T15:44:57;23.70;64.60
61386;DHT22;47256;18.904;-99.054;2023-02-21T15:47:28;23.90;64.70
61386;DHT22;47256;18.904;-99.054;2023-02-21T15:52:37;24.20;65.20
61386;DHT22;47256;18.904;-99.054;2023-02-21T15:55:26;24.40;63.40
61386;DHT22;47256;18.904;-99.054;2023-02-21T15:57:58;24.60;61.10
61386;DHT22;47256;18.904;-99.054;2023-02-21T16:00:31;24.70;63.30
61386;DHT22;47256;18.904;-99.054;2023-02-21T16:03:32;25.00;62.30
61386;DHT22;47256;18.904;-99.054;2023-02-21T16:09:02;25.20;59.70
61386;DHT22;47256;18.904;-99.054;2023-02-21T16:11:50;25.20;61.00
61386;DHT22;47256;18.904;-99.054;2023-02-21T16:14:36;25.40;61.00
61386;DHT22;47256;18.904;-99.054;2023-02-21T16:19:42;25.60;61.90
61386;DHT22;47256;18.904;-99.054;2023-02-21T16:22:30;25.80;59.90
61386;DHT22;47256;18.904;-99.054;2023-02-21T16:27:38;25.90;58.90
61386;DHT22;47256;18.904;-99.054;2023-02-21T16:30:11;26.00;59.30
61386;DHT22;47256;18.904;-99.054;2023-02-21T16:32:43;26.00;62.00
61386;DHT22;47256;18.904;-99.054;2023-02-21T16:35:36;26.20;60.80
61386;DHT22;47256;18.904;-99.054;2023-02-21T16:38:04;26.40;58.70
61386;DHT22;47256;18.904;-99.054;2023-02-21T16:40:34;26.40;60.10
61386;DHT22;47256;18.904;-99.054;2023-02-21T16:43:04;26.60;59.50
61386;DHT22;47256;18.904;-99.054;2023-02-21T16:45:33;26.80;60.60
61386;DHT22;47256;18.904;-99.054;2023-02-21T16:48:03;27.00;59.60
61386;DHT22;47256;18.904;-99.054;2023-02-21T16:50:34;27.10;58.10
61386;DHT22;47256;18.904;-99.054;2023-02-21T16:53:02;27.10;58.70
61386;DHT22;47256;18.904;-99.054;2023-02-21T16:55:31;27.00;58.10
61386;DHT22;47256;18.904;-99.054;2023-02-21T16:58:01;27.00;58.40
61386;DHT22;47256;18.904;-99.054;2023-02-21T17:00:30;27.00;60.10
61386;DHT22;47256;18.904;-99.054;2023-02-21T17:02:57;27.20;60.80
61386;DHT22;47256;18.904;-99.054;2023-02-21T17:05:25;27.20;57.50
61386;DHT22;47256;18.904;-99.054;2023-02-21T17:07:54;27.20;59.20
61386;DHT22;47256;18.904;-99.054;2023-02-21T17:10:25;27.20;58.90
61386;DHT22;47256;18.904;-99.054;2023-02-21T17:12:52;27.40;59.20
61386;DHT22;47256;18.904;-99.054;2023-02-21T17:15:20;27.60;58.70
61386;DHT22;47256;18.904;-99.054;2023-02-21T17:17:49;27.70;58.80
61386;DHT22;47256;18.904;-99.054;2023-02-21T17:20:17;27.90;59.70
61386;DHT22;47256;18.904;-99.054;2023-02-21T17:22:45;28.10;58.80
61386;DHT22;47256;18.904;-99.054;2023-02-21T17:25:15;28.30;59.20
61386;DHT22;47256;18.904;-99.054;2023-02-21T17:27:43;28.40;58.70
61386;DHT22;47256;18.904;-99.054;2023-02-21T17:30:11;28.60;59.10
61386;DHT22;47256;18.904;-99.054;2023-02-21T17:32:39;28.70;57.00
61386;DHT22;47256;18.904;-99.054;2023-02-21T17:35:06;28.70;57.20
61386;DHT22;47256;18.904;-99.054;2023-02-21T17:37:34;28.80;58.30
61386;DHT22;47256;18.904;-99.054;2023-02-21T17:40:02;28.90;57.50
61386;DHT22;47256;18.904;-99.054;2023-02-21T17:42:29;28.90;57.00
61386;DHT22;47256;18.904;-99.054;2023-02-21T17:44:56;28.90;57.90
61386;DHT22;47256;18.904;-99.054;2023-02-21T17:47:25;29.10;57.90
61386;DHT22;47256;18.904;-99.054;2023-02-21T17:49:53;29.10;56.30
61386;DHT22;47256;18.904;-99.054;2023-02-21T17:52:21;29.30;56.90
61386;DHT22;47256;18.904;-99.054;2023-02-21T17:54:48;29.30;57.50
61386;DHT22;47256;18.904;-99.054;2023-02-21T17:57:15;29.40;57.40
61386;DHT22;47256;18.904;-99.054;2023-02-21T17:59:43;29.40;56.50
61386;DHT22;47256;18.904;-99.054;2023-02-21T18:02:11;29.40;56.60
61386;DHT22;47256;18.904;-99.054;2023-02-21T18:04:39;29.30;56.60
61386;DHT22;47256;18.904;-99.054;2023-02-21T18:07:07;29.40;57.80
61386;DHT22;47256;18.904;-99.054;2023-02-21T18:09:35;29.50;56.70
61386;DHT22;47256;18.904;-99.054;2023-02-21T18:12:03;29.60;56.50
61386;DHT22;47256;18.904;-99.054;2023-02-21T18:14:31;29.60;56.50
61386;DHT22;47256;18.904;-99.054;2023-02-21T18:16:58;29.70;56.70
61386;DHT22;47256;18.904;-99.054;2023-02-21T18:19:26;29.90;55.40
61386;DHT22;47256;18.904;-99.054;2023-02-21T18:21:55;29.80;55.10
61386;DHT22;47256;18.904;-99.054;2023-02-21T18:24:22;29.90;57.10
61386;DHT22;47256;18.904;-99.054;2023-02-21T18:26:50;30.00;56.40
61386;DHT22;47256;18.904;-99.054;2023-02-21T18:29:17;30.10;56.30
61386;DHT22;47256;18.904;-99.054;2023-02-21T18:31:44;30.00;55.30
61386;DHT22;47256;18.904;-99.054;2023-02-21T18:34:11;30.00;56.70
61386;DHT22;47256;18.904;-99.054;2023-02-21T18:36:44;30.10;56.50
61386;DHT22;47256;18.904;-99.054;2023-02-21T18:39:15;30.10;56.70
61386;DHT22;47256;18.904;-99.054;2023-02-21T18:41:42;30.10;53.20